Time;durP1;ratioP1;P1;durP2;ratioP2;P2;SDS_P1;SDS_P2;PMS_P1;PMS_P2;Temp;Humidity;BMP_temperature;BMP_pressure;BME280_temperature;BME280_humidity;BME280_pressure;Samples;Min_cycle;Max_cycle;Signal;HPM_P1;HPM_P2
2021/05/01 00:00:13;;;;;;;5.33;4.93;;;19.50;33.00;;;;;;5012211;28;20268;-73
2021/05/01 00:02:38;;;;;;;5.37;4.87;;;19.50;33.00;;;;;;5012421;28;20408;-73
2021/05/01 00:05:04;;;;;;;6.10;5.53;;;19.50;33.00;;;;;;5011765;28;20941;-73
2021/05/01 00:07:30;;;;;;;5.20;4.80;;;19.50;33.10;;;;;;5011874;28;20201;-73
2021/05/01 00:09:55;;;;;;;5.63;5.13;;;19.40;33.10;;;;;;5010795;28;20419;-72
2021/05/01 00:12:21;;;;;;;5.40;4.90;;;19.50;33.20;;;;;;5011827;28;20201;-72
2021/05/01 00:14:46;;;;;;;5.77;5.27;;;19.50;33.30;;;;;;5011790;28;20185;-73
2021/05/01 00:17:12;;;;;;;5.77;5.27;;;19.50;33.20;;;;;;5011521;28;20632;-73
2021/05/01 00:19:37;;;;;;;5.10;4.70;;;19.50;33.20;;;;;;5011854;28;20181;-73
2021/05/01 00:22:03;;;;;;;6.67;4.90;;;19.50;33.30;;;;;;5011720;28;20244;-73
2021/05/01 00:24:29;;;;;;;5.57;5.07;;;19.50;33.30;;;;;;5011744;28;20174;-73
2021/05/01 00:26:54;;;;;;;6.03;5.40;;;19.50;33.40;;;;;;5011496;28;20162;-73
2021/05/01 00:29:20;;;;;;;5.50;5.10;;;19.50;33.30;;;;;;5010582;28;20575;-73
2021/05/01 00:31:45;;;;;;;6.07;5.57;;;19.50;33.20;;;;;;5011659;28;20174;-73
2021/05/01 00:34:11;;;;;;;5.63;5.13;;;19.40;33.10;;;;;;5011640;28;20284;-74
2021/05/01 00:36:36;;;;;;;4.97;4.57;;;19.50;33.30;;;;;;5011408;28;20185;-73
2021/05/01 00:39:03;;;;;;;5.03;4.73;;;19.50;33.20;;;;;;5011543;28;20264;-72
2021/05/01 00:41:28;;;;;;;5.07;4.67;;;19.50;33.30;;;;;;5014000;28;20169;-73
2021/05/01 00:43:54;;;;;;;5.20;4.80;;;19.40;33.30;;;;;;5014023;28;20431;-72
2021/05/01 00:46:20;;;;;;;6.10;5.20;;;19.50;33.40;;;;;;5014920;28;20256;-73
2021/05/01 00:48:46;;;;;;;5.10;4.67;;;19.40;33.30;;;;;;5013940;28;20436;-73
2021/05/01 00:51:12;;;;;;;6.43;5.07;;;19.40;33.30;;;;;;5015039;28;20659;-73
2021/05/01 00:53:38;;;;;;;4.47;4.17;;;19.40;33.30;;;;;;5015098;28;20315;-72
2021/05/01 00:56:05;;;;;;;5.23;4.93;;;19.40;33.20;;;;;;5014811;28;20165;-73
2021/05/01 00:58:31;;;;;;;5.97;5.57;;;19.40;33.30;;;;;;5015025;28;20490;-72
2021/05/01 01:03:25;;;;;;;5.23;4.73;;;19.40;34.00;;;;;;5015184;28;20178;-72
2021/05/01 01:05:51;;;;;;;5.07;4.77;;;19.40;33.30;;;;;;5014674;28;20420;-73
2021/05/01 01:08:16;;;;;;;5.80;5.40;;;19.40;33.40;;;;;;5014671;28;20201;-73
2021/05/01 01:10:42;;;;;;;5.47;5.07;;;19.40;33.40;;;;;;5014816;28;20215;-72
2021/05/01 01:13:08;;;;;;;4.70;4.40;;;19.40;33.30;;;;;;5014732;28;20280;-73
2021/05/01 01:15:33;;;;;;;5.30;4.80;;;19.40;33.40;;;;;;5014420;28;20436;-72
2021/05/01 01:17:59;;;;;;;5.10;4.80;;;19.40;33.40;;;;;;5014625;28;20189;-73
2021/05/01 01:20:26;;;;;;;5.37;4.90;;;19.40;33.40;;;;;;5013285;28;20177;-73
2021/05/01 01:22:52;;;;;;;5.23;4.83;;;19.40;33.30;;;;;;5013681;28;20788;-73
2021/05/01 01:25:18;;;;;;;4.93;4.60;;;19.40;33.30;;;;;;5014279;28;20794;-72
2021/05/01 01:27:44;;;;;;;5.00;4.70;;;19.40;33.30;;;;;;5014450;28;20440;-72
2021/05/01 01:30:12;;;;;;;5.50;5.00;;;19.40;33.40;;;;;;5014353;28;20170;-73
2021/05/01 01:32:37;;;;;;;4.80;4.43;;;19.30;33.40;;;;;;5014417;28;20468;-73
2021/05/01 01:35:04;;;;;;;4.90;4.50;;;19.40;33.40;;;;;;5014156;28;20978;-73
2021/05/01 01:37:30;;;;;;;5.10;4.77;;;19.30;33.30;;;;;;5014190;28;20192;-73
2021/05/01 01:39:55;;;;;;;4.93;4.50;;;19.40;33.40;;;;;;5014525;28;20396;-73
2021/05/01 01:42:21;;;;;;;4.70;4.40;;;19.30;33.30;;;;;;5014195;28;20181;-72
2021/05/01 01:44:46;;;;;;;4.97;4.63;;;19.30;33.20;;;;;;5014102;28;20184;-72
2021/05/01 01:47:12;;;;;;;4.17;3.97;;;19.30;33.20;;;;;;5013843;28;20571;-72
2021/05/01 01:49:38;;;;;;;4.80;4.50;;;19.30;33.30;;;;;;5014361;28;20540;-73
2021/05/01 01:52:05;;;;;;;5.33;4.80;;;19.30;33.40;;;;;;5012925;28;20680;-72
2021/05/01 01:54:30;;;;;;;4.30;4.10;;;19.30;33.40;;;;;;5012727;28;20413;-73
2021/05/01 01:56:59;;;;;;;5.00;4.70;;;19.30;33.30;;;;;;5013682;28;20923;-72
2021/05/01 01:59:26;;;;;;;4.23;4.03;;;19.30;33.50;;;;;;5013899;28;20189;-72
2021/05/01 02:01:51;;;;;;;4.20;3.90;;;19.30;33.40;;;;;;5013816;28;20419;-73
2021/05/01 02:04:17;;;;;;;4.80;4.50;;;19.30;33.30;;;;;;5013922;28;20443;-72
2021/05/01 02:06:43;;;;;;;4.47;4.17;;;19.30;33.30;;;;;;5013515;28;20269;-73
2021/05/01 02:09:09;;;;;;;5.17;4.60;;;19.30;33.40;;;;;;5013710;28;20194;-73
2021/05/01 02:11:35;;;;;;;7.20;5.27;;;19.30;33.30;;;;;;5013692;28;20457;-73
2021/05/01 02:14:02;;;;;;;5.20;4.70;;;19.30;33.40;;;;;;5013379;28;20671;-72
2021/05/01 02:16:27;;;;;;;5.33;4.93;;;19.30;33.40;;;;;;5013374;28;20745;-72
2021/05/01 02:18:53;;;;;;;9.90;5.60;;;19.30;33.40;;;;;;5013323;28;20540;-73
2021/05/01 02:21:18;;;;;;;4.50;4.20;;;19.30;33.40;;;;;;5013414;28;20174;-73
2021/05/01 02:23:44;;;;;;;5.10;4.70;;;19.30;33.40;;;;;;5013475;28;20652;-73
2021/05/01 02:26:10;;;;;;;5.17;4.37;;;19.30;33.40;;;;;;5011899;28;20184;-73
2021/05/01 02:28:35;;;;;;;6.03;5.53;;;19.30;33.40;;;;;;5013244;28;20189;-72
2021/05/01 02:31:01;;;;;;;6.73;4.43;;;19.30;33.40;;;;;;5012000;28;20223;-73
2021/05/01 02:33:28;;;;;;;5.03;4.53;;;19.30;33.30;;;;;;5013174;28;20575;-73
2021/05/01 02:35:53;;;;;;;4.50;4.17;;;19.30;33.30;;;;;;5012967;28;20652;-73
2021/05/01 02:38:19;;;;;;;4.23;3.83;;;19.30;33.40;;;;;;5013115;28;20567;-73
2021/05/01 02:40:44;;;;;;;3.90;3.60;;;19.30;33.30;;;;;;5011864;28;20169;-72
2021/05/01 02:43:11;;;;;;;4.27;3.97;;;19.30;33.30;;;;;;5013105;28;20311;-73
2021/05/01 02:45:37;;;;;;;4.20;3.90;;;19.30;33.30;;;;;;5012855;28;20182;-72
2021/05/01 02:48:04;;;;;;;4.70;4.40;;;19.30;33.40;;;;;;5012899;28;20494;-72
2021/05/01 02:50:30;;;;;;;4.80;4.40;;;19.30;33.40;;;;;;5012886;28;20423;-72
2021/05/01 02:52:55;;;;;;;4.93;4.53;;;19.30;33.40;;;;;;5012845;28;20464;-73
2021/05/01 02:55:21;;;;;;;5.53;5.13;;;19.20;33.30;;;;;;5012630;28;20205;-72
2021/05/01 02:57:49;;;;;;;4.20;3.90;;;19.30;33.30;;;;;;5012841;28;20196;-72
2021/05/01 03:00:17;;;;;;;4.50;4.20;;;19.20;33.30;;;;;;5012800;28;20640;-73
2021/05/01 03:02:43;;;;;;;4.40;4.20;;;19.20;33.50;;;;;;5011509;28;20463;-72
2021/05/01 03:05:10;;;;;;;4.83;4.53;;;19.20;33.30;;;;;;5012467;28;20440;-72
2021/05/01 03:07:35;;;;;;;3.90;3.70;;;19.20;33.20;;;;;;5012547;28;20192;-72
2021/05/01 03:10:04;;;;;;;4.83;4.53;;;19.20;33.30;;;;;;5012823;28;20458;-72
2021/05/01 03:12:30;;;;;;;4.80;4.50;;;19.20;33.30;;;;;;5012511;28;20200;-72
2021/05/01 03:14:55;;;;;;;4.10;3.80;;;19.20;33.20;;;;;;5012460;28;21062;-72
2021/05/01 03:17:21;;;;;;;4.53;4.23;;;19.20;33.40;;;;;;5012185;28;20165;-72
2021/05/01 03:19:46;;;;;;;5.03;4.60;;;19.20;33.40;;;;;;5012460;28;20292;-73
2021/05/01 03:22:12;;;;;;;4.80;4.50;;;19.20;33.40;;;;;;5012424;28;20165;-72
2021/05/01 03:24:38;;;;;;;4.00;3.80;;;19.20;33.30;;;;;;5012451;28;20180;-72
2021/05/01 03:27:04;;;;;;;3.97;3.70;;;19.20;33.40;;;;;;5012148;28;20602;-72
2021/05/01 03:29:30;;;;;;;5.17;4.77;;;19.20;33.40;;;;;;5012268;28;20439;-72
2021/05/01 03:31:55;;;;;;;4.10;3.80;;;19.20;33.40;;;;;;5012261;28;20778;-72
2021/05/01 03:34:21;;;;;;;4.37;4.07;;;19.20;33.40;;;;;;5010990;28;20212;-73
2021/05/01 03:36:47;;;;;;;4.30;4.00;;;19.20;33.40;;;;;;5012055;28;20170;-73
2021/05/01 03:39:15;;;;;;;4.60;4.30;;;19.20;33.30;;;;;;5012227;28;20199;-72
2021/05/01 03:41:41;;;;;;;4.10;3.90;;;19.20;33.80;;;;;;5012194;28;20663;-72
2021/05/01 03:44:06;;;;;;;4.77;4.37;;;19.20;33.80;;;;;;5012242;28;20436;-72
2021/05/01 03:46:32;;;;;;;5.03;4.57;;;19.30;33.70;;;;;;5011862;28;20197;-72
2021/05/01 03:48:57;;;;;;;5.13;4.73;;;19.40;33.50;;;;;;5012220;28;20264;-72
2021/05/01 03:51:23;;;;;;;4.47;4.17;;;19.50;33.30;;;;;;5012221;28;20701;-73
2021/05/01 03:53:49;;;;;;;4.20;4.00;;;19.60;33.40;;;;;;5012498;28;20255;-72
2021/05/01 03:56:14;;;;;;;4.30;4.10;;;19.70;32.70;;;;;;5012460;28;20538;-72
2021/05/01 03:58:40;;;;;;;4.10;3.90;;;19.80;32.50;;;;;;5012782;28;20193;-72
2021/05/01 04:01:05;;;;;;;4.43;4.10;;;19.90;32.30;;;;;;5012512;28;20177;-72
2021/05/01 04:03:31;;;;;;;5.03;4.53;;;19.90;32.10;;;;;;5012382;28;20181;-72
2021/05/01 04:05:56;;;;;;;5.30;4.37;;;20.00;32.00;;;;;;5011992;28;20643;-73
2021/05/01 04:08:22;;;;;;;4.10;3.90;;;20.00;32.00;;;;;;5011986;28;20205;-73
2021/05/01 04:10:47;;;;;;;4.70;4.40;;;20.00;32.00;;;;;;5011967;28;20169;-73
2021/05/01 04:13:13;;;;;;;4.50;4.27;;;20.00;31.90;;;;;;5011912;28;20201;-72
2021/05/01 04:15:38;;;;;;;4.47;4.17;;;20.10;31.90;;;;;;5011537;28;20189;-73
2021/05/01 04:18:04;;;;;;;5.13;4.63;;;20.10;31.90;;;;;;5015779;28;20232;-72
2021/05/01 04:20:30;;;;;;;4.33;4.03;;;20.10;31.80;;;;;;5015703;28;20223;-73
2021/05/01 04:22:57;;;;;;;4.23;4.03;;;20.10;31.80;;;;;;5015774;28;20243;-73
2021/05/01 04:25:22;;;;;;;4.30;4.00;;;20.20;31.80;;;;;;5015422;28;20193;-73
2021/05/01 04:27:48;;;;;;;3.93;3.63;;;20.20;31.70;;;;;;5015530;28;20471;-73
2021/05/01 04:30:14;;;;;;;4.13;3.93;;;20.20;31.70;;;;;;5015592;28;20181;-73
2021/05/01 04:32:40;;;;;;;4.40;4.10;;;20.20;31.70;;;;;;5015291;28;20209;-72
2021/05/01 04:35:06;;;;;;;4.07;3.87;;;20.20;31.70;;;;;;5015293;28;20408;-73
2021/05/01 04:37:32;;;;;;;4.33;4.13;;;20.20;31.70;;;;;;5015489;28;20189;-72
2021/05/01 04:39:57;;;;;;;4.17;3.97;;;20.20;31.90;;;;;;5015383;28;20431;-73
2021/05/01 04:42:23;;;;;;;4.67;4.37;;;20.20;32.00;;;;;;5014210;28;20671;-73
2021/05/01 04:44:49;;;;;;;4.27;4.07;;;20.20;32.10;;;;;;5015212;28;20648;-73
2021/05/01 04:47:16;;;;;;;4.00;3.80;;;20.20;32.10;;;;;;5013727;28;20478;-73
2021/05/01 04:49:42;;;;;;;4.47;4.20;;;20.10;32.00;;;;;;5015289;28;20165;-73
2021/05/01 04:52:08;;;;;;;4.27;3.97;;;20.10;32.10;;;;;;5015094;28;20907;-73
2021/05/01 04:54:33;;;;;;;4.27;4.07;;;20.10;32.10;;;;;;5015080;28;20538;-73
2021/05/01 04:56:59;;;;;;;4.30;4.10;;;20.10;32.20;;;;;;5014877;28;20527;-73
2021/05/01 04:59:24;;;;;;;4.17;3.97;;;20.10;32.20;;;;;;5013705;28;20224;-73
2021/05/01 05:01:50;;;;;;;4.83;4.47;;;20.10;32.30;;;;;;5013838;28;20186;-73
2021/05/01 05:04:15;;;;;;;3.90;3.70;;;20.10;32.30;;;;;;5014896;28;20224;-74
2021/05/01 05:06:41;;;;;;;4.03;3.83;;;20.10;32.40;;;;;;5013695;28;20652;-73
2021/05/01 05:09:06;;;;;;;4.03;3.73;;;20.10;32.50;;;;;;5015046;28;20197;-73
2021/05/01 05:11:32;;;;;;;4.03;3.50;;;20.00;32.50;;;;;;5014705;28;20611;-73
2021/05/01 05:13:59;;;;;;;3.90;3.70;;;20.00;32.50;;;;;;5014611;28;20232;-73
2021/05/01 05:16:25;;;;;;;4.20;4.00;;;20.00;32.50;;;;;;5014528;28;20495;-73
2021/05/01 05:18:50;;;;;;;4.07;3.87;;;20.00;32.60;;;;;;5014662;28;20574;-72
2021/05/01 05:21:16;;;;;;;4.10;3.90;;;20.00;32.70;;;;;;5014608;28;20178;-73
2021/05/01 05:23:41;;;;;;;3.57;3.47;;;20.00;32.60;;;;;;5014632;28;20213;-73
2021/05/01 05:26:07;;;;;;;3.73;3.50;;;19.90;32.70;;;;;;5014021;28;20180;-73
2021/05/01 05:28:32;;;;;;;4.20;3.90;;;19.90;32.70;;;;;;5013295;28;20204;-73
2021/05/01 05:30:58;;;;;;;4.63;4.33;;;20.00;32.90;;;;;;5014443;28;20181;-73
2021/05/01 05:33:23;;;;;;;3.53;3.43;;;19.90;32.70;;;;;;5013172;28;20209;-73
2021/05/01 05:35:49;;;;;;;3.80;3.60;;;19.90;32.70;;;;;;5014097;28;20170;-73
2021/05/01 05:38:14;;;;;;;4.30;3.90;;;20.00;32.80;;;;;;5014583;28;20189;-74
2021/05/01 05:40:41;;;;;;;3.93;3.73;;;20.00;32.80;;;;;;5014102;28;20178;-73
2021/05/01 05:43:10;;;;;;;3.37;3.17;;;20.00;32.70;;;;;;5014248;28;20587;-73
2021/05/01 05:45:37;;;;;;;3.97;3.67;;;20.00;32.50;;;;;;5014092;28;20495;-72
2021/05/01 05:48:04;;;;;;;4.03;3.83;;;20.00;32.40;;;;;;5012777;28;20443;-73
2021/05/01 05:50:30;;;;;;;3.87;3.67;;;20.00;32.40;;;;;;5014085;28;20408;-73
2021/05/01 05:52:55;;;;;;;3.80;3.60;;;20.00;32.30;;;;;;5012664;28;20811;-74
2021/05/01 05:55:21;;;;;;;3.33;3.17;;;20.00;32.40;;;;;;5013827;28;20448;-73
2021/05/01 05:57:52;;;;;;;3.50;3.40;;;20.10;32.50;;;;;;5013830;28;20251;-72
2021/05/01 06:00:19;;;;;;;4.03;3.80;;;20.00;32.50;;;;;;5013941;28;20636;-74
2021/05/01 06:02:46;;;;;;;3.57;3.47;;;20.00;32.40;;;;;;5013699;28;20934;-73
2021/05/01 06:05:19;;;;;;;3.80;3.60;;;20.00;32.50;;;;;;5013674;28;20415;-73
2021/05/01 06:07:51;;;;;;;3.97;3.77;;;20.00;33.30;;;;;;5013665;28;20483;-73
2021/05/01 06:10:17;;;;;;;3.60;3.40;;;20.00;32.50;;;;;;5013916;28;20770;-73
2021/05/01 06:12:44;;;;;;;3.93;3.63;;;20.00;32.60;;;;;;5013606;28;20460;-73
2021/05/01 06:15:16;;;;;;;4.30;4.07;;;20.00;32.70;;;;;;5013379;28;20646;-74
2021/05/01 06:17:43;;;;;;;3.30;3.10;;;20.00;32.70;;;;;;5013483;28;20454;-73
2021/05/01 06:20:10;;;;;;;4.27;3.97;;;20.00;32.80;;;;;;5013461;28;20479;-74
2021/05/01 06:22:36;;;;;;;4.00;3.80;;;20.00;33.00;;;;;;5013280;28;21105;-73
2021/05/01 06:25:05;;;;;;;3.57;3.40;;;20.00;33.00;;;;;;5013278;28;20477;-73
2021/05/01 06:27:31;;;;;;;4.53;4.13;;;20.00;33.00;;;;;;5011955;28;20436;-74
2021/05/01 06:29:56;;;;;;;3.80;3.60;;;20.00;33.00;;;;;;5013388;28;20474;-73
2021/05/01 06:32:22;;;;;;;3.80;3.50;;;19.90;33.00;;;;;;5013285;28;20804;-73
2021/05/01 06:34:56;;;;;;;3.67;3.37;;;19.90;33.00;;;;;;5013343;28;20173;-73
2021/05/01 06:37:24;;;;;;;3.37;3.27;;;19.90;33.10;;;;;;5012869;28;20416;-73
2021/05/01 06:39:51;;;;;;;3.87;3.67;;;19.90;33.00;;;;;;5012743;28;20474;-74
2021/05/01 06:42:22;;;;;;;3.60;3.40;;;20.00;33.10;;;;;;5013078;28;20444;-73
2021/05/01 06:44:59;;;;;;;3.30;3.20;;;19.90;33.00;;;;;;5013189;28;20405;-73
2021/05/01 06:47:27;;;;;;;3.80;3.50;;;20.00;33.10;;;;;;5012923;28;20416;-73
2021/05/01 06:49:59;;;;;;;3.70;3.50;;;20.00;32.70;;;;;;5011738;28;20421;-73
2021/05/01 06:52:25;;;;;;;4.00;3.70;;;20.00;32.50;;;;;;5012858;28;20408;-73
2021/05/01 06:54:52;;;;;;;3.30;3.20;;;20.00;32.40;;;;;;5012940;28;20412;-74
2021/05/01 06:57:25;;;;;;;3.23;3.10;;;20.00;32.40;;;;;;5011574;28;20430;-74
2021/05/01 06:59:56;;;;;;;3.93;3.80;;;20.10;32.40;;;;;;5012831;28;20426;-73
2021/05/01 07:02:24;;;;;;;3.70;3.50;;;20.10;32.50;;;;;;5012834;28;20779;-73
2021/05/01 07:04:52;;;;;;;3.60;3.40;;;20.10;32.50;;;;;;5012777;28;20416;-74
2021/05/01 07:07:22;;;;;;;3.80;3.60;;;20.10;32.50;;;;;;5012411;28;20404;-74
2021/05/01 07:09:48;;;;;;;3.70;3.50;;;20.10;32.60;;;;;;5012791;28;21142;-73
2021/05/01 07:12:14;;;;;;;3.30;3.10;;;20.10;32.70;;;;;;5011255;28;20420;-73
2021/05/01 07:14:41;;;;;;;3.70;3.50;;;20.10;32.60;;;;;;5011362;28;20494;-73
2021/05/01 07:17:07;;;;;;;3.77;3.57;;;20.10;32.60;;;;;;5011104;28;20413;-73
2021/05/01 07:19:33;;;;;;;3.80;3.60;;;20.10;32.70;;;;;;5031594;28;20544;-73
2021/05/01 07:21:59;;;;;;;3.60;3.40;;;20.00;32.50;;;;;;5036193;28;20181;-73
2021/05/01 07:24:26;;;;;;;3.00;2.90;;;20.00;32.60;;;;;;5040653;28;20496;-73
2021/05/01 07:26:54;;;;;;;3.90;3.50;;;20.00;32.70;;;;;;5038037;28;20192;-73
2021/05/01 07:29:20;;;;;;;3.70;3.53;;;20.00;32.80;;;;;;5044491;28;20458;-73
2021/05/01 07:31:47;;;;;;;3.23;2.90;;;20.00;32.90;;;;;;5040687;28;20932;-73
2021/05/01 07:34:20;;;;;;;3.37;3.27;;;20.00;33.00;;;;;;5032009;28;20209;-73
2021/05/01 07:36:48;;;;;;;4.00;3.63;;;20.00;33.10;;;;;;5031771;28;20502;-73
2021/05/01 07:39:15;;;;;;;3.50;3.20;;;20.00;33.10;;;;;;5032325;28;20770;-73
2021/05/01 07:41:43;;;;;;;3.27;3.07;;;20.00;33.20;;;;;;5032046;28;20506;-74
2021/05/01 07:44:10;;;;;;;3.40;3.20;;;20.00;33.20;;;;;;5031970;28;20415;-74
2021/05/01 07:46:39;;;;;;;3.70;3.37;;;20.00;33.30;;;;;;5031807;28;20454;-73
2021/05/01 07:49:09;;;;;;;3.30;3.10;;;20.00;33.30;;;;;;5031898;28;20470;-73
2021/05/01 07:51:38;;;;;;;3.50;3.20;;;20.00;33.30;;;;;;5031066;28;20791;-73
2021/05/01 07:54:04;;;;;;;3.60;3.30;;;19.90;33.30;;;;;;5031949;28;20816;-73
2021/05/01 07:56:30;;;;;;;3.70;3.40;;;19.90;33.30;;;;;;5031578;28;20506;-73
2021/05/01 07:58:56;;;;;;;7.03;3.83;;;19.90;33.30;;;;;;5032109;28;20486;-74
2021/05/01 08:01:25;;;;;;;3.93;3.70;;;19.90;33.40;;;;;;5030354;28;20177;-74
2021/05/01 08:03:51;;;;;;;4.10;3.77;;;19.90;33.50;;;;;;5012377;28;20420;-73
2021/05/01 08:06:17;;;;;;;9.47;4.10;;;20.00;33.60;;;;;;5011911;28;20419;-73
2021/05/01 08:08:43;;;;;;;4.60;4.20;;;20.00;33.90;;;;;;5014042;28;20279;-73
2021/05/01 08:11:08;;;;;;;4.17;3.77;;;20.00;33.70;;;;;;5031599;28;20506;-73
2021/05/01 08:13:34;;;;;;;8.53;4.33;;;20.00;33.90;;;;;;5031644;28;20211;-73
2021/05/01 08:15:59;;;;;;;5.23;4.40;;;20.00;33.60;;;;;;5031446;28;20189;-73
2021/05/01 08:18:25;;;;;;;10.27;9.43;;;20.00;33.90;;;;;;5032462;28;20254;-73
2021/05/01 08:20:50;;;;;;;13.73;12.57;;;19.60;29.70;;;;;;5035269;28;20180;-73
2021/05/01 08:23:16;;;;;;;12.30;11.30;;;19.00;29.30;;;;;;5040526;28;20181;-74
2021/05/01 08:25:42;;;;;;;11.87;10.90;;;19.00;30.10;;;;;;5033444;28;20181;-72
2021/05/01 08:28:07;;;;;;;10.63;9.73;;;19.10;29.40;;;;;;5030324;28;20230;-72
2021/05/01 08:30:33;;;;;;;14.63;10.13;;;19.20;30.60;;;;;;5031641;28;20177;-73
2021/05/01 08:32:58;;;;;;;15.10;11.57;;;19.30;30.30;;;;;;5037692;28;20204;-72
2021/05/01 08:35:24;;;;;;;10.83;9.83;;;19.40;30.30;;;;;;5034176;28;20795;-73
2021/05/01 08:37:49;;;;;;;10.20;9.40;;;19.50;30.50;;;;;;5039423;28;20291;-72
2021/05/01 08:40:16;;;;;;;9.87;9.07;;;19.60;30.00;;;;;;5036218;28;20216;-73
2021/05/01 08:42:47;;;;;;;9.30;8.40;;;19.70;30.20;;;;;;5038720;28;20176;-72
2021/05/01 08:45:16;;;;;;;9.53;8.80;;;19.80;29.90;;;;;;5036129;28;20420;-73
2021/05/01 08:47:47;;;;;;;11.73;8.00;;;19.80;29.80;;;;;;5032129;28;20450;-72
2021/05/01 08:50:31;;;;;;;9.30;8.17;;;19.90;29.90;;;;;;5036467;28;20419;-73
2021/05/01 08:52:58;;;;;;;7.90;7.30;;;20.00;30.00;;;;;;5031690;28;20454;-75
2021/05/01 08:55:26;;;;;;;10.57;8.20;;;20.00;30.00;;;;;;5032958;28;20458;-74
2021/05/01 08:57:53;;;;;;;8.43;7.70;;;20.00;30.00;;;;;;5030986;28;20869;-76
2021/05/01 09:00:19;;;;;;;8.33;7.63;;;20.10;30.00;;;;;;5031778;28;20412;-73
2021/05/01 09:02:47;;;;;;;8.40;7.60;;;20.10;30.00;;;;;;5034509;28;20797;-76
2021/05/01 09:05:13;;;;;;;8.67;7.80;;;20.10;30.00;;;;;;5038187;28;20792;-75
2021/05/01 09:07:42;;;;;;;7.57;6.97;;;20.10;30.00;;;;;;5035425;28;20942;-76
2021/05/01 09:10:09;;;;;;;8.20;7.60;;;20.10;30.00;;;;;;5038317;28;20514;-74
2021/05/01 09:12:45;;;;;;;7.53;6.93;;;20.00;30.10;;;;;;5038449;28;20473;-74
2021/05/01 09:15:12;;;;;;;7.90;7.30;;;20.00;30.20;;;;;;5029131;28;20435;-76
2021/05/01 09:17:39;;;;;;;8.10;7.50;;;20.00;30.20;;;;;;5034456;28;20515;-78
2021/05/01 09:20:16;;;;;;;8.30;7.30;;;20.00;30.20;;;;;;5034404;28;20419;-74
2021/05/01 09:22:52;;;;;;;7.50;6.90;;;20.00;30.20;;;;;;5034770;28;20419;-74
2021/05/01 09:25:18;;;;;;;7.73;7.03;;;19.90;30.20;;;;;;5024166;28;20435;-77
2021/05/01 09:28:07;;;;;;;8.30;7.47;;;19.90;30.20;;;;;;5021771;28;20435;-76
2021/05/01 09:30:36;;;;;;;7.00;6.60;;;19.90;30.20;;;;;;5023626;28;20233;-75
2021/05/01 09:33:22;;;;;;;6.93;6.43;;;19.80;30.30;;;;;;5021662;28;20506;-75
2021/05/01 09:35:56;;;;;;;7.20;6.70;;;19.80;30.40;;;;;;5024106;28;20422;-75
2021/05/01 09:38:22;;;;;;;7.43;6.80;;;19.80;30.40;;;;;;5024567;28;20969;-75
2021/05/01 09:40:49;;;;;;;7.90;7.20;;;19.80;30.50;;;;;;5034262;28;20470;-74
2021/05/01 09:43:16;;;;;;;6.23;5.83;;;19.70;30.40;;;;;;5034349;28;20447;-73
2021/05/01 09:45:42;;;;;;;6.73;6.33;;;19.80;30.50;;;;;;5034087;28;20439;-73
2021/05/01 09:48:17;;;;;;;6.20;5.80;;;19.70;30.50;;;;;;5034018;28;20469;-73
2021/05/01 09:50:46;;;;;;;6.60;6.20;;;19.70;30.50;;;;;;5016395;28;20436;-73
2021/05/01 09:53:17;;;;;;;7.20;6.70;;;19.70;30.50;;;;;;5013863;28;20471;-71
2021/05/01 09:55:54;;;;;;;6.83;5.97;;;19.70;30.50;;;;;;5012958;28;20412;-73
2021/05/01 09:58:28;;;;;;;6.20;5.80;;;19.70;30.50;;;;;;5014005;28;20438;-71
2021/05/01 10:01:13;;;;;;;6.93;6.30;;;19.70;30.50;;;;;;5014099;28;20404;-71
2021/05/01 10:03:39;;;;;;;7.73;6.40;;;19.70;30.40;;;;;;5022973;28;20878;-72
2021/05/01 10:06:06;;;;;;;6.63;6.03;;;19.70;30.30;;;;;;5027736;28;20824;-71
2021/05/01 10:08:34;;;;;;;6.40;6.00;;;19.70;30.30;;;;;;5033473;28;20431;-72
2021/05/01 10:11:11;;;;;;;6.53;6.03;;;19.70;30.20;;;;;;5032056;28;20435;-71
2021/05/01 10:13:48;;;;;;;6.27;5.83;;;19.70;30.30;;;;;;5032497;28;20550;-70
2021/05/01 10:16:14;;;;;;;6.30;5.90;;;19.60;30.20;;;;;;5033225;28;20427;-72
2021/05/01 10:19:08;;;;;;;6.37;5.97;;;19.70;30.40;;;;;;5033465;28;20463;-72
2021/05/01 10:21:35;;;;;;;6.70;6.20;;;19.60;30.30;;;;;;5033030;28;20418;-71
2021/05/01 10:24:01;;;;;;;5.97;5.67;;;19.70;30.40;;;;;;5032839;28;20502;-74
2021/05/01 10:26:43;;;;;;;6.50;6.00;;;19.60;30.40;;;;;;5032747;28;20419;-73
2021/05/01 10:29:10;;;;;;;5.50;5.17;;;19.70;30.50;;;;;;5031771;28;20486;-73
2021/05/01 10:31:54;;;;;;;5.80;5.40;;;19.60;30.40;;;;;;5033020;28;20430;-73
2021/05/01 10:34:25;;;;;;;5.40;5.10;;;19.70;30.50;;;;;;5033099;28;21022;-73
2021/05/01 10:36:53;;;;;;;6.67;6.07;;;19.70;30.50;;;;;;5024153;28;20527;-73
2021/05/01 10:39:20;;;;;;;5.87;5.47;;;19.70;30.80;;;;;;5023960;28;20508;-73
2021/05/01 10:41:59;;;;;;;7.13;6.53;;;19.80;30.80;;;;;;5032884;28;20526;-72
2021/05/01 10:44:26;;;;;;;8.60;7.13;;;19.80;30.90;;;;;;5036066;28;20844;-73
2021/05/01 10:47:26;;;;;;;7.30;6.67;;;19.80;30.90;;;;;;5037326;28;20435;-73
2021/05/01 10:49:51;;;;;;;7.03;6.27;;;19.80;30.80;;;;;;5034007;28;20410;-73
2021/05/01 10:52:19;;;;;;;8.13;6.37;;;19.90;30.90;;;;;;5031166;28;20790;-73
2021/05/01 10:55:05;;;;;;;6.80;6.10;;;19.90;30.90;;;;;;5032598;28;20161;-72
2021/05/01 10:57:35;;;;;;;5.93;5.43;;;19.90;30.90;;;;;;5032566;28;20485;-72
2021/05/01 11:00:05;;;;;;;7.00;6.30;;;19.90;31.00;;;;;;5031291;28;20427;-72
2021/05/01 11:02:42;;;;;;;13.30;6.10;;;19.90;30.90;;;;;;5032472;28;20898;-72
2021/05/01 11:05:10;;;;;;;7.17;6.47;;;19.90;30.90;;;;;;5032200;28;20510;-72
2021/05/01 11:08:17;;;;;;;7.03;5.83;;;19.90;31.00;;;;;;5031062;28;20497;-72
2021/05/01 11:10:46;;;;;;;7.60;6.37;;;19.90;31.00;;;;;;5032473;28;20413;-73
2021/05/01 11:13:22;;;;;;;8.57;5.60;;;19.90;31.00;;;;;;5031090;28;20632;-72
2021/05/01 11:15:50;;;;;;;6.70;6.00;;;19.90;31.00;;;;;;5032132;28;20436;-73
2021/05/01 11:18:20;;;;;;;7.03;6.33;;;19.80;31.10;;;;;;5030819;28;20443;-73
2021/05/01 11:20:47;;;;;;;9.60;6.57;;;19.90;31.10;;;;;;5032174;28;20403;-72
2021/05/01 11:23:14;;;;;;;6.53;5.90;;;19.90;31.20;;;;;;5032112;28;20415;-73
2021/05/01 11:25:41;;;;;;;7.20;6.50;;;19.90;31.20;;;;;;5030679;28;20906;-73
2021/05/01 11:28:11;;;;;;;6.63;6.03;;;19.90;31.20;;;;;;5031971;28;20438;-73
2021/05/01 11:30:38;;;;;;;6.10;5.50;;;19.80;31.10;;;;;;5032034;28;20419;-73
2021/05/01 11:33:04;;;;;;;7.07;6.20;;;19.90;31.10;;;;;;5031762;28;20458;-73
2021/05/01 11:35:31;;;;;;;6.17;5.67;;;19.90;31.30;;;;;;5031852;28;20410;-73
2021/05/01 11:37:59;;;;;;;6.17;5.63;;;19.90;31.20;;;;;;5031091;28;20992;-74
2021/05/01 11:40:27;;;;;;;6.23;5.70;;;19.90;31.20;;;;;;5032055;28;20403;-73
2021/05/01 11:42:55;;;;;;;6.27;5.70;;;20.00;31.30;;;;;;5031973;28;20407;-73
2021/05/01 11:45:31;;;;;;;5.93;5.53;;;20.00;31.00;;;;;;5031671;28;20921;-73
2021/05/01 11:48:01;;;;;;;8.20;6.23;;;20.00;31.10;;;;;;5031675;28;20434;-73
2021/05/01 11:50:28;;;;;;;6.80;6.00;;;20.00;31.00;;;;;;5031979;28;20495;-73
2021/05/01 11:53:09;;;;;;;7.37;6.57;;;20.00;31.00;;;;;;5031760;28;20508;-73
2021/05/01 11:55:44;;;;;;;7.10;6.40;;;20.00;31.00;;;;;;5031070;28;20446;-73
2021/05/01 11:58:23;;;;;;;7.00;6.27;;;20.00;31.10;;;;;;5035397;28;20588;-73
2021/05/01 12:00:48;;;;;;;7.77;6.90;;;20.00;31.30;;;;;;5039483;28;20462;-73
2021/05/01 12:03:20;;;;;;;8.57;6.30;;;20.00;31.00;;;;;;5037603;28;20458;-72
2021/05/01 12:05:52;;;;;;;6.33;5.70;;;20.00;31.10;;;;;;5034514;28;20294;-73
2021/05/01 12:08:22;;;;;;;6.33;5.73;;;20.00;31.20;;;;;;5037122;28;21051;-72
2021/05/01 12:10:57;;;;;;;6.13;5.63;;;20.00;31.20;;;;;;5031582;28;20436;-72
2021/05/01 12:13:34;;;;;;;6.53;5.97;;;20.00;31.30;;;;;;5033928;28;20569;-72
2021/05/01 12:16:00;;;;;;;6.97;6.27;;;20.00;31.30;;;;;;5034222;28;20441;-73
2021/05/01 12:18:50;;;;;;;6.33;5.87;;;20.00;31.70;;;;;;5031617;28;20443;-73
2021/05/01 12:21:17;;;;;;;6.23;5.77;;;20.00;31.60;;;;;;5033402;28;20495;-73
2021/05/01 12:23:50;;;;;;;7.97;6.17;;;20.00;31.80;;;;;;5031674;28;20461;-73
2021/05/01 12:26:35;;;;;;;6.67;6.07;;;20.00;31.70;;;;;;5031495;28;20412;-73
2021/05/01 12:29:19;;;;;;;6.13;5.63;;;20.00;31.80;;;;;;5031534;28;20510;-73
2021/05/01 12:31:58;;;;;;;7.03;6.20;;;20.00;31.90;;;;;;5031592;28;20412;-73
2021/05/01 12:34:52;;;;;;;6.13;5.67;;;20.00;32.50;;;;;;5031594;28;20469;-73
2021/05/01 12:37:20;;;;;;;5.50;5.00;;;20.00;31.80;;;;;;5033402;28;20737;-73
2021/05/01 12:39:46;;;;;;;8.07;5.70;;;20.00;31.90;;;;;;5035264;28;20412;-73
2021/05/01 12:42:33;;;;;;;8.30;6.00;;;20.00;32.00;;;;;;5035162;28;20419;-72
2021/05/01 12:44:59;;;;;;;6.80;6.10;;;20.00;32.00;;;;;;5027846;28;20441;-72
2021/05/01 12:47:37;;;;;;;6.43;5.70;;;20.00;32.20;;;;;;5039371;28;20483;-73
2021/05/01 12:50:12;;;;;;;5.50;5.00;;;20.00;32.30;;;;;;5027014;28;20403;-72
2021/05/01 12:52:39;;;;;;;6.20;5.60;;;20.00;32.40;;;;;;5033789;28;20422;-73